createdAt,value
2023-02-28T00:00:43.722Z,66.27
2023-02-28T00:01:43.720Z,66.16
2023-02-28T00:02:43.684Z,66.06
2023-02-28T00:03:43.727Z,66.16
2023-02-28T00:04:43.656Z,66.06
2023-02-28T00:05:43.693Z,66.06
2023-02-28T00:06:43.663Z,66.47
2023-02-28T00:07:43.645Z,66.27
2023-02-28T00:08:43.629Z,66.37
2023-02-28T00:09:43.622Z,66.37
2023-02-28T00:10:43.685Z,66.47
2023-02-28T00:11:43.586Z,66.58
2023-02-28T00:12:43.593Z,66.37
2023-02-28T00:13:43.583Z,66.27
2023-02-28T00:14:43.566Z,66.37
2023-02-28T00:15:43.585Z,66.68
2023-02-28T00:16:43.603Z,66.89
2023-02-28T00:17:43.547Z,66.68
2023-02-28T00:18:43.514Z,66.89
2023-02-28T00:19:43.518Z,66.93
2023-02-28T00:20:43.510Z,66.89
2023-02-28T00:21:43.507Z,67.00
2023-02-28T00:22:43.473Z,67.10
2023-02-28T00:23:43.470Z,67.34
2023-02-28T00:24:43.478Z,67.31
2023-02-28T00:25:43.460Z,67.44
2023-02-28T00:26:43.458Z,67.44
2023-02-28T00:27:43.447Z,67.65
2023-02-28T00:28:43.440Z,67.86
2023-02-28T00:29:43.417Z,67.86
2023-02-28T00:30:43.455Z,67.76
2023-02-28T00:31:43.398Z,67.76
2023-02-28T00:32:43.376Z,67.86
2023-02-28T00:33:43.367Z,67.97
2023-02-28T00:34:43.366Z,67.86
2023-02-28T00:35:43.378Z,68.07
2023-02-28T00:36:43.336Z,68.07
2023-02-28T00:37:43.317Z,68.18
2023-02-28T00:38:43.348Z,67.97
2023-02-28T00:39:43.316Z,68.07
2023-02-28T00:40:43.303Z,68.38
2023-02-28T00:41:43.308Z,68.38
2023-02-28T00:42:43.268Z,68.60
2023-02-28T00:43:43.302Z,68.49
2023-02-28T00:44:43.254Z,68.60
2023-02-28T00:45:43.254Z,68.80
2023-02-28T00:46:43.235Z,68.80
2023-02-28T00:47:43.240Z,69.01
2023-02-28T00:48:43.217Z,68.91
2023-02-28T00:49:43.220Z,69.01
2023-02-28T00:50:43.205Z,68.91
2023-02-28T00:51:43.186Z,69.01
2023-02-28T00:52:43.185Z,69.22
2023-02-28T00:53:43.184Z,69.22
2023-02-28T00:54:43.156Z,69.12
2023-02-28T00:55:43.156Z,69.33
2023-02-28T00:56:43.126Z,69.46
2023-02-28T00:57:43.146Z,69.43
2023-02-28T00:58:43.111Z,69.88
2023-02-28T00:59:43.134Z,69.88
2023-02-28T01:00:43.161Z,69.99
2023-02-28T01:01:43.101Z,69.99
2023-02-28T01:02:43.076Z,70.09
2023-02-28T01:03:43.074Z,70.20
2023-02-28T01:04:43.097Z,70.40
2023-02-28T01:05:43.065Z,70.40
2023-02-28T01:06:43.035Z,70.72
2023-02-28T01:07:43.015Z,70.83
2023-02-28T01:08:43.003Z,70.93
2023-02-28T01:09:43.007Z,70.93
2023-02-28T01:10:42.995Z,71.03
2023-02-28T01:11:42.977Z,70.83
2023-02-28T01:12:42.959Z,70.93
2023-02-28T01:13:42.972Z,70.93
2023-02-28T01:14:42.967Z,71.24
2023-02-28T01:15:42.959Z,71.45
2023-02-28T01:16:42.930Z,71.34
2023-02-28T01:17:42.915Z,71.34
2023-02-28T01:18:42.908Z,71.45
2023-02-28T01:19:42.917Z,71.56
2023-02-28T01:20:42.912Z,71.77
2023-02-28T01:21:42.877Z,71.66
2023-02-28T01:22:42.902Z,71.77
2023-02-28T01:23:42.837Z,71.87
2023-02-28T01:24:42.836Z,72.08
2023-02-28T01:25:42.900Z,71.97
2023-02-28T01:26:42.839Z,71.97
2023-02-28T01:27:42.808Z,72.29
2023-02-28T01:28:42.804Z,72.39
2023-02-28T01:29:42.817Z,72.29
2023-02-28T01:30:42.950Z,72.39
2023-02-28T01:31:42.765Z,72.39
2023-02-28T01:32:42.790Z,72.64
2023-02-28T01:33:42.748Z,72.74
2023-02-28T01:34:42.737Z,72.95
2023-02-28T01:35:42.755Z,72.60
2023-02-28T01:36:42.726Z,72.60
2023-02-28T01:37:42.706Z,72.60
2023-02-28T01:38:42.696Z,72.92
2023-02-28T01:39:42.695Z,72.81
2023-02-28T01:40:42.675Z,73.05
2023-02-28T01:41:42.667Z,73.16
2023-02-28T01:42:42.649Z,73.26
2023-02-28T01:43:42.644Z,73.37
2023-02-28T01:44:42.671Z,73.37
2023-02-28T01:45:42.630Z,73.47
2023-02-28T01:46:42.645Z,73.37
2023-02-28T01:47:42.623Z,73.16
2023-02-28T01:48:42.612Z,73.26
2023-02-28T01:49:42.595Z,73.47
2023-02-28T01:50:42.592Z,73.58
2023-02-28T01:51:42.543Z,73.79
2023-02-28T01:52:42.589Z,73.68
2023-02-28T01:53:42.520Z,73.99
2023-02-28T01:54:42.512Z,73.89
2023-02-28T01:55:42.513Z,73.99
2023-02-28T01:56:42.511Z,73.89
2023-02-28T01:57:42.495Z,73.89
2023-02-28T01:58:42.495Z,73.89
2023-02-28T01:59:42.492Z,73.89
2023-02-28T02:00:42.474Z,73.99
2023-02-28T02:01:42.457Z,73.99
2023-02-28T02:02:42.471Z,74.31
2023-02-28T02:03:42.452Z,74.41
2023-02-28T02:04:42.431Z,74.41
2023-02-28T02:05:42.440Z,74.10
2023-02-28T02:06:42.440Z,74.21
2023-02-28T02:07:42.393Z,74.41
2023-02-28T02:08:42.387Z,74.31
2023-02-28T02:09:42.361Z,74.41
2023-02-28T02:10:42.358Z,74.62
2023-02-28T02:11:42.340Z,74.73
2023-02-28T02:12:42.350Z,74.84
2023-02-28T02:13:42.407Z,74.84
2023-02-28T02:14:42.311Z,75.04
2023-02-28T02:15:42.355Z,74.94
2023-02-28T02:16:42.326Z,75.04
2023-02-28T02:17:42.289Z,74.94
2023-02-28T02:18:42.268Z,75.04
2023-02-28T02:19:42.283Z,75.04
2023-02-28T02:20:42.249Z,75.04
2023-02-28T02:21:42.257Z,75.04
2023-02-28T02:22:42.246Z,75.04
2023-02-28T02:23:42.214Z,75.25
2023-02-28T02:24:42.198Z,75.46
2023-02-28T02:25:42.209Z,75.46
2023-02-28T02:26:42.202Z,75.57
2023-02-28T02:27:42.175Z,75.46
2023-02-28T02:28:42.161Z,75.67
2023-02-28T02:29:42.192Z,75.78
2023-02-28T02:30:42.153Z,75.78
2023-02-28T02:31:42.170Z,75.88
2023-02-28T02:32:42.170Z,76.09
2023-02-28T02:33:42.122Z,76.09
2023-02-28T02:34:42.127Z,75.98
2023-02-28T02:35:42.156Z,76.09
2023-02-28T02:36:42.097Z,76.09
2023-02-28T02:37:42.091Z,76.09
2023-02-28T02:38:42.104Z,76.09
2023-02-28T02:39:42.072Z,76.09
2023-02-28T02:40:42.041Z,75.98
2023-02-28T02:41:42.069Z,75.98
2023-02-28T02:42:42.036Z,76.09
2023-02-28T02:43:42.011Z,76.20
2023-02-28T02:44:42.013Z,76.30
2023-02-28T02:45:42.013Z,76.30
2023-02-28T02:46:42.045Z,76.30
2023-02-28T02:47:41.981Z,76.30
2023-02-28T02:48:42.002Z,76.20
2023-02-28T02:49:41.972Z,76.20
2023-02-28T02:50:41.931Z,76.20
2023-02-28T02:51:41.941Z,76.20
2023-02-28T02:52:41.966Z,76.40
2023-02-28T02:53:41.942Z,76.51
2023-02-28T02:54:41.892Z,76.40
2023-02-28T02:55:41.933Z,76.40
2023-02-28T02:56:41.902Z,76.61
2023-02-28T02:57:41.888Z,76.51
2023-02-28T02:58:41.913Z,76.72
2023-02-28T02:59:41.863Z,76.93
2023-02-28T03:00:41.857Z,76.82
2023-02-28T03:01:41.844Z,76.82
2023-02-28T03:02:41.832Z,76.93
2023-02-28T03:03:41.843Z,77.03
2023-02-28T03:04:41.798Z,77.03
2023-02-28T03:05:41.822Z,76.89
2023-02-28T03:06:41.777Z,77.10
2023-02-28T03:07:41.776Z,77.24
2023-02-28T03:08:41.773Z,77.20
2023-02-28T03:09:41.745Z,77.20
2023-02-28T03:10:41.763Z,77.20
2023-02-28T03:11:41.733Z,77.10
2023-02-28T03:12:41.722Z,77.20
2023-02-28T03:13:41.716Z,77.20
2023-02-28T03:14:41.703Z,77.31
2023-02-28T03:15:41.687Z,77.52
2023-02-28T03:16:41.699Z,77.52
2023-02-28T03:17:41.674Z,77.42
2023-02-28T03:18:41.680Z,77.31
2023-02-28T03:19:41.662Z,77.31
2023-02-28T03:20:41.639Z,77.52
2023-02-28T03:21:41.659Z,77.52
2023-02-28T03:22:41.629Z,77.42
2023-02-28T03:23:41.625Z,77.31
2023-02-28T03:24:41.629Z,77.42
2023-02-28T03:25:41.600Z,77.31
2023-02-28T03:26:41.567Z,77.31
2023-02-28T03:27:41.570Z,77.31
2023-02-28T03:28:41.557Z,77.42
2023-02-28T03:29:41.567Z,77.62
2023-02-28T03:30:41.548Z,77.62
2023-02-28T03:31:41.650Z,77.42
2023-02-28T03:32:41.538Z,77.42
2023-02-28T03:33:41.514Z,77.62
2023-02-28T03:34:41.514Z,77.52
2023-02-28T03:35:41.491Z,77.42
2023-02-28T03:36:41.478Z,77.48
2023-02-28T03:37:41.477Z,77.48
2023-02-28T03:38:41.474Z,77.28
2023-02-28T03:39:41.473Z,77.38
2023-02-28T03:40:41.429Z,77.38
2023-02-28T03:41:41.438Z,77.28
2023-02-28T03:42:41.399Z,77.38
2023-02-28T03:43:41.408Z,77.38
2023-02-28T03:44:41.408Z,77.48
2023-02-28T03:45:41.409Z,77.48
2023-02-28T03:46:41.402Z,77.48
2023-02-28T03:47:41.387Z,77.48
2023-02-28T03:48:41.350Z,77.48
2023-02-28T03:49:41.616Z,77.48
2023-02-28T03:50:41.344Z,77.38
2023-02-28T03:51:41.342Z,77.48
2023-02-28T03:52:41.311Z,77.38
2023-02-28T03:53:41.309Z,77.59
2023-02-28T03:54:41.298Z,77.38
2023-02-28T03:55:41.309Z,77.38
2023-02-28T03:56:41.260Z,77.48
2023-02-28T03:57:41.269Z,77.38
2023-02-28T03:58:41.248Z,77.28
2023-02-28T03:59:41.258Z,77.38
2023-02-28T04:00:41.270Z,77.34
2023-02-28T04:01:41.283Z,77.34
2023-02-28T04:02:41.210Z,77.59
2023-02-28T04:03:41.198Z,77.45
2023-02-28T04:04:41.222Z,77.34
2023-02-28T04:05:41.188Z,77.34
2023-02-28T04:06:41.205Z,77.34
2023-02-28T04:07:41.148Z,77.45
2023-02-28T04:08:41.161Z,77.24
2023-02-28T04:09:41.141Z,77.24
2023-02-28T04:10:41.138Z,77.14
2023-02-28T04:11:41.133Z,77.24
2023-02-28T04:12:41.109Z,77.24
2023-02-28T04:13:41.117Z,77.14
2023-02-28T04:14:41.108Z,77.34
2023-02-28T04:15:41.095Z,77.34
2023-02-28T04:16:41.127Z,77.34
2023-02-28T04:17:41.092Z,77.34
2023-02-28T04:18:41.053Z,77.14
2023-02-28T04:19:41.029Z,77.24
2023-02-28T04:20:41.041Z,77.24
2023-02-28T04:21:41.019Z,77.14
2023-02-28T04:22:41.005Z,77.14
2023-02-28T04:23:41.001Z,77.24
2023-02-28T04:24:41.023Z,77.14
2023-02-28T04:25:40.977Z,77.03
2023-02-28T04:26:40.959Z,77.24
2023-02-28T04:27:40.949Z,77.24
2023-02-28T04:28:40.928Z,77.24
2023-02-28T04:29:40.920Z,77.34
2023-02-28T04:30:40.938Z,77.24
2023-02-28T04:31:40.967Z,77.24
2023-02-28T04:32:40.954Z,77.14
2023-02-28T04:33:40.899Z,77.03
2023-02-28T04:34:40.900Z,77.03
2023-02-28T04:35:40.895Z,76.93
2023-02-28T04:36:40.866Z,77.03
2023-02-28T04:37:40.861Z,77.03
2023-02-28T04:38:40.828Z,76.93
2023-02-28T04:39:40.994Z,76.82
2023-02-28T04:40:40.826Z,76.93
2023-02-28T04:41:40.816Z,77.03
2023-02-28T04:42:40.809Z,76.93
2023-02-28T04:43:40.802Z,77.03
2023-02-28T04:44:40.785Z,77.14
2023-02-28T04:45:40.784Z,77.14
2023-02-28T04:46:40.761Z,77.03
2023-02-28T04:47:40.772Z,77.03
2023-02-28T04:48:40.720Z,76.89
2023-02-28T04:49:40.747Z,76.89
2023-02-28T04:50:40.696Z,76.89
2023-02-28T04:51:40.695Z,76.89
2023-02-28T04:52:40.703Z,76.89
2023-02-28T04:53:40.717Z,77.00
2023-02-28T04:54:40.660Z,77.10
2023-02-28T04:55:40.662Z,77.10
2023-02-28T04:56:40.682Z,77.10
2023-02-28T04:57:40.645Z,76.89
2023-02-28T04:58:40.661Z,76.89
2023-02-28T04:59:40.604Z,76.89
2023-02-28T05:00:40.622Z,76.79
2023-02-28T05:01:40.675Z,76.79
2023-02-28T05:02:40.588Z,76.79
2023-02-28T05:03:40.584Z,76.79
2023-02-28T05:04:40.627Z,76.79
2023-02-28T05:05:40.545Z,76.68
2023-02-28T05:06:40.563Z,76.68
2023-02-28T05:07:40.563Z,76.68
2023-02-28T05:08:40.595Z,76.79
2023-02-28T05:09:40.527Z,76.89
2023-02-28T05:10:40.495Z,77.00
2023-02-28T05:11:40.559Z,76.89
2023-02-28T05:12:40.471Z,76.89
2023-02-28T05:13:40.478Z,76.89
2023-02-28T05:14:40.469Z,76.89
2023-02-28T05:15:40.456Z,76.79
2023-02-28T05:16:40.482Z,76.68
2023-02-28T05:17:40.445Z,76.79
2023-02-28T05:18:40.445Z,76.79
2023-02-28T05:19:40.559Z,76.89
2023-02-28T05:20:40.396Z,76.68
2023-02-28T05:21:40.489Z,76.68
2023-02-28T05:22:40.364Z,77.27
2023-02-28T05:23:40.374Z,76.86
2023-02-28T05:24:40.374Z,77.06
2023-02-28T05:25:40.347Z,77.48
2023-02-28T05:26:40.345Z,76.86
2023-02-28T05:27:40.324Z,76.75
2023-02-28T05:28:40.314Z,77.27
2023-02-28T05:29:40.304Z,77.17
2023-02-28T05:30:40.307Z,76.75
2023-02-28T05:31:40.318Z,76.54
2023-02-28T05:32:40.347Z,76.65
2023-02-28T05:33:40.303Z,76.96
2023-02-28T05:34:40.962Z,76.86
2023-02-28T05:35:40.318Z,76.65
2023-02-28T05:36:40.248Z,76.75
2023-02-28T05:37:40.284Z,76.96
2023-02-28T05:38:40.217Z,77.06
2023-02-28T05:39:40.209Z,77.27
2023-02-28T05:40:40.208Z,76.96
2023-02-28T05:41:40.183Z,76.75
2023-02-28T05:42:41.655Z,76.65
2023-02-28T05:43:40.170Z,76.44
2023-02-28T05:44:40.224Z,76.33
2023-02-28T05:45:40.199Z,76.33
2023-02-28T05:46:41.091Z,76.33
2023-02-28T05:47:40.130Z,76.33
2023-02-28T05:48:41.120Z,76.23
2023-02-28T05:49:40.103Z,76.23
2023-02-28T05:50:41.074Z,76.33
2023-02-28T05:51:40.063Z,76.33
2023-02-28T05:52:40.115Z,76.33
2023-02-28T05:53:40.076Z,76.44
2023-02-28T05:54:40.102Z,76.12
2023-02-28T05:55:40.114Z,76.02
2023-02-28T05:56:40.196Z,76.33
2023-02-28T05:57:40.057Z,76.12
2023-02-28T05:58:40.717Z,75.92
2023-02-28T05:59:40.006Z,75.92
2023-02-28T06:00:42.294Z,76.02
2023-02-28T06:01:40.008Z,76.02
2023-02-28T06:02:40.672Z,75.92
2023-02-28T06:03:40.055Z,76.02
2023-02-28T06:04:40.647Z,76.12
2023-02-28T06:05:39.967Z,75.92
2023-02-28T06:06:40.007Z,76.02
2023-02-28T06:07:39.931Z,76.02
2023-02-28T06:08:40.015Z,75.81
2023-02-28T06:09:39.917Z,75.67
2023-02-28T06:10:39.898Z,75.71
2023-02-28T06:11:40.834Z,75.71
2023-02-28T06:12:39.878Z,75.71
2023-02-28T06:13:39.869Z,75.92
2023-02-28T06:14:39.893Z,75.81
2023-02-28T06:15:39.849Z,75.71
2023-02-28T06:16:39.837Z,75.81
2023-02-28T06:17:39.828Z,75.60
2023-02-28T06:18:39.837Z,75.50
2023-02-28T06:19:39.790Z,75.60
2023-02-28T06:20:39.782Z,75.71
2023-02-28T06:21:39.783Z,75.92
2023-02-28T06:22:39.760Z,75.81
2023-02-28T06:23:39.834Z,75.71
2023-02-28T06:24:39.755Z,75.71
2023-02-28T06:25:40.510Z,75.71
2023-02-28T06:26:39.727Z,75.57
2023-02-28T06:27:39.708Z,75.71
2023-02-28T06:28:39.771Z,75.57
2023-02-28T06:29:39.683Z,75.46
2023-02-28T06:30:39.842Z,75.46
2023-02-28T06:31:39.741Z,75.46
2023-02-28T06:32:39.653Z,75.57
2023-02-28T06:33:39.684Z,75.46
2023-02-28T06:34:39.639Z,75.46
2023-02-28T06:35:39.674Z,75.46
2023-02-28T06:36:39.629Z,75.36
2023-02-28T06:37:41.708Z,75.46
2023-02-28T06:38:39.619Z,75.36
2023-02-28T06:39:39.592Z,75.57
2023-02-28T06:40:39.592Z,75.88
2023-02-28T06:41:53.643Z,75.78
2023-02-28T06:42:40.560Z,75.98
2023-02-28T06:43:40.254Z,75.98
2023-02-28T06:44:39.560Z,75.88
2023-02-28T06:45:40.198Z,75.78
2023-02-28T06:46:39.531Z,75.78
2023-02-28T06:47:39.660Z,75.57
2023-02-28T06:48:39.524Z,75.57
2023-02-28T06:49:40.232Z,75.57
2023-02-28T06:50:39.485Z,75.46
2023-02-28T06:51:39.535Z,75.36
2023-02-28T06:52:39.475Z,75.36
2023-02-28T06:53:40.484Z,75.46
2023-02-28T06:54:39.438Z,75.46
2023-02-28T06:55:39.819Z,75.26
2023-02-28T06:56:39.444Z,75.22
2023-02-28T06:57:39.464Z,75.22
2023-02-28T06:58:39.404Z,75.43
2023-02-28T06:59:39.406Z,75.53
2023-02-28T07:00:39.403Z,75.43
2023-02-28T07:01:39.383Z,75.12
2023-02-28T07:02:39.396Z,74.91
2023-02-28T07:03:39.331Z,74.91
2023-02-28T07:04:39.387Z,74.60
2023-02-28T07:05:39.336Z,74.38
2023-02-28T07:06:39.301Z,74.60
2023-02-28T07:07:39.311Z,74.70
2023-02-28T07:08:39.286Z,74.70
2023-02-28T07:09:39.279Z,74.38
2023-02-28T07:10:39.297Z,74.28
2023-02-28T07:11:39.238Z,74.28
2023-02-28T07:12:39.249Z,74.49
2023-02-28T07:13:39.234Z,74.60
2023-02-28T07:14:39.255Z,74.49
2023-02-28T07:15:41.639Z,74.70
2023-02-28T07:16:39.199Z,74.80
2023-02-28T07:17:39.201Z,74.60
2023-02-28T07:18:39.170Z,74.49
2023-02-28T07:19:39.165Z,74.38
2023-02-28T07:20:39.148Z,74.38
2023-02-28T07:21:39.156Z,74.28
2023-02-28T07:22:39.147Z,74.28
2023-02-28T07:23:39.149Z,74.28
2023-02-28T07:24:39.162Z,74.28
2023-02-28T07:25:39.123Z,74.38
2023-02-28T07:26:39.108Z,74.28
2023-02-28T07:27:39.107Z,74.18
2023-02-28T07:28:39.075Z,74.18
2023-02-28T07:29:39.374Z,74.07
2023-02-28T07:30:39.068Z,74.07
2023-02-28T07:31:39.163Z,74.07
2023-02-28T07:32:39.035Z,73.97
2023-02-28T07:33:39.024Z,74.07
2023-02-28T07:34:39.004Z,74.18
2023-02-28T07:35:39.070Z,73.97
2023-02-28T07:36:39.007Z,73.86
2023-02-28T07:37:38.989Z,73.97
2023-02-28T07:38:38.993Z,74.07
2023-02-28T07:39:38.976Z,73.97
2023-02-28T07:40:38.984Z,73.83
2023-02-28T07:41:39.043Z,73.93
2023-02-28T07:42:38.946Z,73.83
2023-02-28T07:43:38.923Z,73.72
2023-02-28T07:44:38.911Z,73.62
2023-02-28T07:45:38.922Z,73.62
2023-02-28T07:46:38.919Z,73.62
2023-02-28T07:47:38.876Z,73.52
2023-02-28T07:48:38.901Z,73.52
2023-02-28T07:49:38.868Z,73.52
2023-02-28T07:50:38.863Z,73.62
2023-02-28T07:51:38.866Z,73.62
2023-02-28T07:52:38.859Z,73.62
2023-02-28T07:53:38.825Z,73.62
2023-02-28T07:54:38.824Z,73.52
2023-02-28T07:55:38.849Z,73.52
2023-02-28T07:56:38.795Z,73.41
2023-02-28T07:57:38.786Z,73.31
2023-02-28T07:58:38.786Z,73.21
2023-02-28T07:59:38.785Z,73.31
2023-02-28T08:00:38.768Z,73.31
2023-02-28T08:01:38.802Z,73.31
2023-02-28T08:02:38.749Z,73.10
2023-02-28T08:03:38.734Z,73.10
2023-02-28T08:04:38.749Z,73.10
2023-02-28T08:05:38.699Z,73.10
2023-02-28T08:06:38.708Z,73.21
2023-02-28T08:07:38.680Z,73.17
2023-02-28T08:08:38.662Z,73.07
2023-02-28T08:09:38.664Z,72.86
2023-02-28T08:10:40.778Z,73.07
2023-02-28T08:11:38.655Z,72.96
2023-02-28T08:12:38.621Z,72.96
2023-02-28T08:13:38.618Z,72.96
2023-02-28T08:14:39.272Z,72.86
2023-02-28T08:15:38.586Z,72.65
2023-02-28T08:16:38.707Z,72.86
2023-02-28T08:17:38.606Z,72.75
2023-02-28T08:18:39.236Z,72.55
2023-02-28T08:19:38.578Z,72.55
2023-02-28T08:20:38.707Z,72.65
2023-02-28T08:21:38.567Z,72.65
2023-02-28T08:22:38.665Z,72.65
2023-02-28T08:23:38.594Z,72.55
2023-02-28T08:24:39.206Z,72.55
2023-02-28T08:25:38.507Z,72.51
2023-02-28T08:26:38.920Z,72.41
2023-02-28T08:27:38.535Z,72.41
2023-02-28T08:28:38.529Z,72.41
2023-02-28T08:29:38.474Z,72.62
2023-02-28T08:30:38.519Z,72.72
2023-02-28T08:31:38.466Z,72.62
2023-02-28T08:32:38.518Z,72.51
2023-02-28T08:33:38.399Z,72.51
2023-02-28T08:34:38.415Z,72.20
2023-02-28T08:35:38.474Z,72.20
2023-02-28T08:36:38.446Z,72.09
2023-02-28T08:37:38.379Z,72.06
2023-02-28T08:38:38.370Z,72.06
2023-02-28T08:39:38.354Z,72.06
2023-02-28T08:40:38.333Z,71.96
2023-02-28T08:41:38.366Z,71.86
2023-02-28T08:42:38.305Z,71.65
2023-02-28T08:43:38.346Z,71.54
2023-02-28T08:44:38.296Z,71.54
2023-02-28T08:45:38.307Z,71.75
2023-02-28T08:46:38.285Z,71.86
2023-02-28T08:47:38.302Z,71.65
2023-02-28T08:48:38.266Z,71.54
2023-02-28T08:49:38.223Z,71.44
2023-02-28T08:50:38.222Z,71.23
2023-02-28T08:51:38.236Z,71.02
2023-02-28T08:52:38.200Z,71.23
2023-02-28T08:53:38.213Z,71.23
2023-02-28T08:54:38.191Z,71.02
2023-02-28T08:55:38.170Z,71.02
2023-02-28T08:56:38.214Z,71.12
2023-02-28T08:57:38.182Z,71.33
2023-02-28T08:58:38.150Z,71.20
2023-02-28T08:59:38.140Z,71.09
2023-02-28T09:00:38.134Z,70.99
2023-02-28T09:01:38.149Z,70.78
2023-02-28T09:02:38.151Z,70.89
2023-02-28T09:03:38.141Z,70.99
2023-02-28T09:04:38.097Z,70.99
2023-02-28T09:05:38.052Z,70.78
2023-02-28T09:06:38.099Z,70.78
2023-02-28T09:07:38.082Z,70.78
2023-02-28T09:08:38.039Z,70.89
2023-02-28T09:09:38.051Z,70.68
2023-02-28T09:10:38.030Z,70.75
2023-02-28T09:11:37.995Z,70.75
2023-02-28T09:12:38.677Z,70.54
2023-02-28T09:13:37.981Z,70.54
2023-02-28T09:14:37.983Z,70.43
2023-02-28T09:15:37.950Z,70.33
2023-02-28T09:16:38.249Z,70.02
2023-02-28T09:17:37.937Z,69.89
2023-02-28T09:18:37.974Z,69.89
2023-02-28T09:19:37.924Z,69.78
2023-02-28T09:20:37.929Z,69.78
2023-02-28T09:21:37.923Z,69.57
2023-02-28T09:22:37.901Z,69.68
2023-02-28T09:23:37.883Z,69.26
2023-02-28T09:24:37.871Z,69.47
2023-02-28T09:25:37.861Z,68.95
2023-02-28T09:26:43.026Z,68.08
2023-02-28T09:27:38.842Z,68.08
2023-02-28T09:28:37.846Z,68.29
2023-02-28T09:29:37.999Z,68.50
2023-02-28T09:30:37.866Z,68.60
2023-02-28T09:31:37.932Z,68.08
2023-02-28T09:32:37.832Z,67.88
2023-02-28T09:33:38.464Z,67.77
2023-02-28T09:34:37.928Z,67.46
2023-02-28T09:35:38.895Z,66.94
2023-02-28T09:36:44.730Z,67.46
2023-02-28T09:37:39.434Z,67.36
2023-02-28T09:38:37.744Z,67.12
2023-02-28T09:39:38.048Z,66.50
2023-02-28T09:40:37.715Z,65.97
2023-02-28T09:41:37.704Z,65.14
2023-02-28T09:42:37.724Z,65.25
2023-02-28T09:43:37.672Z,65.14
2023-02-28T09:44:37.687Z,65.25
2023-02-28T09:45:37.679Z,64.83
2023-02-28T09:46:37.848Z,64.62
2023-02-28T09:47:37.670Z,64.73
2023-02-28T09:48:40.051Z,64.83
2023-02-28T09:49:37.643Z,65.04
2023-02-28T09:50:37.605Z,64.94
2023-02-28T09:51:37.598Z,64.94
2023-02-28T09:52:37.655Z,64.80
2023-02-28T09:53:37.579Z,64.70
2023-02-28T09:54:37.586Z,64.59
2023-02-28T09:55:46.242Z,64.39
2023-02-28T09:56:38.545Z,63.97
2023-02-28T09:57:37.526Z,64.39
2023-02-28T09:58:37.524Z,64.28
2023-02-28T09:59:37.524Z,63.97
2023-02-28T10:00:37.508Z,63.84
2023-02-28T10:01:37.533Z,63.94
2023-02-28T10:02:37.486Z,64.04
2023-02-28T10:03:37.476Z,63.84
2023-02-28T10:04:37.570Z,63.84
2023-02-28T10:05:37.497Z,63.81
2023-02-28T10:06:37.448Z,63.71
2023-02-28T10:07:37.427Z,63.81
2023-02-28T10:08:37.418Z,63.71
2023-02-28T10:09:37.418Z,63.47
2023-02-28T10:10:37.401Z,63.37
2023-02-28T10:11:37.378Z,63.06
2023-02-28T10:12:37.405Z,63.16
2023-02-28T10:13:37.361Z,63.16
2023-02-28T10:14:37.367Z,63.44
2023-02-28T10:15:37.464Z,63.13
2023-02-28T10:16:37.312Z,62.71
2023-02-28T10:17:49.204Z,62.40
2023-02-28T10:18:38.293Z,61.96
2023-02-28T10:19:37.338Z,61.88
2023-02-28T10:20:37.266Z,62.16
2023-02-28T10:21:37.290Z,62.37
2023-02-28T10:22:37.253Z,62.48
2023-02-28T10:23:37.245Z,62.58
2023-02-28T10:24:37.258Z,62.37
2023-02-28T10:25:37.236Z,62.06
2023-02-28T10:26:37.218Z,61.65
2023-02-28T10:27:37.216Z,61.34
2023-02-28T10:28:37.238Z,61.55
2023-02-28T10:29:37.209Z,61.44
2023-02-28T10:30:37.180Z,61.41
2023-02-28T10:31:37.211Z,61.41
2023-02-28T10:32:37.150Z,61.21
2023-02-28T10:33:37.144Z,61.24
2023-02-28T10:34:37.149Z,61.55
2023-02-28T10:35:37.188Z,61.76
2023-02-28T10:36:37.099Z,61.52
2023-02-28T10:37:37.110Z,61.62
2023-02-28T10:38:37.108Z,61.83
2023-02-28T10:39:37.088Z,61.62
2023-02-28T10:40:37.091Z,61.52
2023-02-28T10:41:37.088Z,61.21
2023-02-28T10:42:37.069Z,60.97
2023-02-28T10:43:37.066Z,60.87
2023-02-28T10:44:37.037Z,60.84
2023-02-28T10:45:37.020Z,60.53
2023-02-28T10:46:37.076Z,60.63
2023-02-28T10:47:36.990Z,60.01
2023-02-28T10:48:37.082Z,59.60
2023-02-28T10:49:36.990Z,59.60
2023-02-28T10:50:36.971Z,60.01
2023-02-28T10:51:36.961Z,60.22
2023-02-28T10:52:36.930Z,60.01
2023-02-28T10:53:52.713Z,59.91
2023-02-28T10:54:37.943Z,60.01
2023-02-28T10:55:36.939Z,60.01
2023-02-28T10:56:36.943Z,60.11
2023-02-28T10:57:36.913Z,60.19
2023-02-28T10:58:36.881Z,59.88
2023-02-28T10:59:36.880Z,59.64
2023-02-28T11:00:36.863Z,59.55
2023-02-28T11:01:36.939Z,58.82
2023-02-28T11:02:37.037Z,58.79
2023-02-28T11:03:36.837Z,58.79
2023-02-28T11:04:36.941Z,58.59
2023-02-28T11:05:36.823Z,58.48
2023-02-28T11:06:36.788Z,58.07
2023-02-28T11:07:45.696Z,58.17
2023-02-28T11:08:37.795Z,58.07
2023-02-28T11:09:36.772Z,58.07
2023-02-28T11:10:36.778Z,57.94
2023-02-28T11:11:36.748Z,57.73
2023-02-28T11:12:43.439Z,57.94
2023-02-28T11:13:37.718Z,58.25
2023-02-28T11:14:36.728Z,58.35
2023-02-28T11:15:36.718Z,58.15
2023-02-28T11:16:36.683Z,58.15
2023-02-28T11:17:36.746Z,57.73
2023-02-28T11:18:36.663Z,57.53
2023-02-28T11:19:36.708Z,57.32
2023-02-28T11:20:36.637Z,57.32
2023-02-28T11:21:36.633Z,57.73
2023-02-28T11:22:36.606Z,57.60
2023-02-28T11:23:37.962Z,57.60
2023-02-28T11:24:36.620Z,57.91
2023-02-28T11:25:36.607Z,57.70
2023-02-28T11:26:36.571Z,57.26
2023-02-28T11:27:36.593Z,57.26
2023-02-28T11:28:36.551Z,57.26
2023-02-28T11:29:36.557Z,57.06
2023-02-28T11:30:36.569Z,56.75
2023-02-28T11:31:36.577Z,56.31
2023-02-28T11:32:36.585Z,56.52
2023-02-28T11:33:36.523Z,56.73
2023-02-28T11:34:36.526Z,56.93
2023-02-28T11:35:36.539Z,56.93
2023-02-28T11:36:36.468Z,56.70
2023-02-28T11:37:36.483Z,56.80
2023-02-28T11:38:36.555Z,56.18
2023-02-28T11:39:36.436Z,56.16
2023-02-28T11:40:36.437Z,55.74
2023-02-28T11:41:36.429Z,55.64
2023-02-28T11:42:36.444Z,55.95
2023-02-28T11:43:36.392Z,56.44
2023-02-28T11:44:36.397Z,55.93
2023-02-28T11:45:36.388Z,55.72
2023-02-28T11:46:36.408Z,55.21
2023-02-28T11:47:36.386Z,55.21
2023-02-28T11:48:36.328Z,54.79
2023-02-28T11:49:36.341Z,54.48
2023-02-28T11:50:36.321Z,54.48
2023-02-28T11:51:36.333Z,54.48
2023-02-28T11:52:36.289Z,54.15
2023-02-28T11:53:36.413Z,54.15
2023-02-28T11:54:36.304Z,54.15
2023-02-28T11:55:36.268Z,54.77
2023-02-28T11:56:36.299Z,54.33
2023-02-28T11:57:36.280Z,53.81
2023-02-28T11:58:36.246Z,53.71
2023-02-28T11:59:36.240Z,53.89
2023-02-28T12:00:36.239Z,53.58
2023-02-28T12:01:36.594Z,54.07
2023-02-28T12:02:36.280Z,53.56
2023-02-28T12:03:36.239Z,52.81
2023-02-28T12:04:36.187Z,52.38
2023-02-28T12:05:36.207Z,51.76
2023-02-28T12:06:36.197Z,51.66
2023-02-28T12:07:36.162Z,51.33
2023-02-28T12:08:36.138Z,51.33
2023-02-28T12:09:36.119Z,51.12
2023-02-28T12:10:36.112Z,50.90
2023-02-28T12:11:36.132Z,50.18
2023-02-28T12:12:36.098Z,50.28
2023-02-28T12:13:36.082Z,50.46
2023-02-28T12:14:36.071Z,49.85
2023-02-28T12:15:36.070Z,49.10
2023-02-28T12:16:36.115Z,48.96
2023-02-28T12:17:36.453Z,48.11
2023-02-28T12:18:36.043Z,47.78
2023-02-28T12:19:36.020Z,47.05
2023-02-28T12:20:36.031Z,46.92
2023-02-28T12:21:36.037Z,46.49
2023-02-28T12:22:35.992Z,45.96
2023-02-28T12:23:36.007Z,45.00
2023-02-28T12:24:35.992Z,44.78
2023-02-28T12:25:35.968Z,43.81
2023-02-28T12:26:35.988Z,44.02
2023-02-28T12:27:35.973Z,43.24
2023-02-28T12:28:35.939Z,41.80
2023-02-28T12:29:36.056Z,41.72
2023-02-28T12:30:35.900Z,41.60
2023-02-28T12:31:35.975Z,40.93
2023-02-28T12:32:36.010Z,39.86
2023-02-28T12:33:35.884Z,39.09
2023-02-28T12:34:35.884Z,38.02
2023-02-28T12:35:35.928Z,37.40
2023-02-28T12:36:35.831Z,37.52
2023-02-28T12:37:35.826Z,36.57
2023-02-28T12:38:35.874Z,36.55
2023-02-28T12:39:48.418Z,36.29
2023-02-28T12:40:36.798Z,37.49
2023-02-28T12:41:35.803Z,37.99
2023-02-28T12:42:35.902Z,37.47
2023-02-28T12:43:36.216Z,36.83
2023-02-28T12:44:36.306Z,36.79
2023-02-28T12:45:36.385Z,36.30
2023-02-28T12:46:36.323Z,37.51
2023-02-28T12:47:36.100Z,38.66
2023-02-28T12:48:36.013Z,38.12
2023-02-28T12:49:35.936Z,37.79
2023-02-28T12:50:35.745Z,37.89
2023-02-28T12:51:35.696Z,37.77
2023-02-28T12:52:35.676Z,37.65